sensor_id;sensor_type;location;lat;lon;timestamp;P1;durP1;ratioP1;P2;durP2;ratioP2
7645;SDS011;3864;48.180;14.178;2023-03-03T00:01:41;25.67;;;12.82;;
7645;SDS011;3864;48.180;14.178;2023-03-03T00:04:09;23.85;;;12.60;;
7645;SDS011;3864;48.180;14.178;2023-03-03T00:06:36;26.83;;;12.48;;
7645;SDS011;3864;48.180;14.178;2023-03-03T00:09:04;24.60;;;12.77;;
7645;SDS011;3864;48.180;14.178;2023-03-03T00:11:31;27.67;;;14.10;;
7645;SDS011;3864;48.180;14.178;2023-03-03T00:13:58;27.38;;;12.60;;
7645;SDS011;3864;48.180;14.178;2023-03-03T00:16:29;25.85;;;12.77;;
7645;SDS011;3864;48.180;14.178;2023-03-03T00:18:56;24.60;;;11.88;;
7645;SDS011;3864;48.180;14.178;2023-03-03T00:21:28;24.85;;;11.88;;
7645;SDS011;3864;48.180;14.178;2023-03-03T00:24:10;24.20;;;12.45;;
7645;SDS011;3864;48.180;14.178;2023-03-03T00:26:42;22.10;;;11.63;;
7645;SDS011;3864;48.180;14.178;2023-03-03T00:29:29;24.45;;;12.10;;
7645;SDS011;3864;48.180;14.178;2023-03-03T00:31:58;22.77;;;12.23;;
7645;SDS011;3864;48.180;14.178;2023-03-03T00:34:29;19.25;;;11.25;;
7645;SDS011;3864;48.180;14.178;2023-03-03T00:36:58;22.63;;;11.82;;
7645;SDS011;3864;48.180;14.178;2023-03-03T00:39:27;22.95;;;12.02;;
7645;SDS011;3864;48.180;14.178;2023-03-03T00:41:55;23.25;;;12.85;;
7645;SDS011;3864;48.180;14.178;2023-03-03T00:47:18;24.75;;;11.88;;
7645;SDS011;3864;48.180;14.178;2023-03-03T00:49:48;22.63;;;12.55;;
7645;SDS011;3864;48.180;14.178;2023-03-03T00:52:18;22.90;;;11.35;;
7645;SDS011;3864;48.180;14.178;2023-03-03T00:54:45;24.08;;;12.20;;
7645;SDS011;3864;48.180;14.178;2023-03-03T00:57:12;25.27;;;12.48;;
7645;SDS011;3864;48.180;14.178;2023-03-03T00:59:38;27.58;;;12.18;;
7645;SDS011;3864;48.180;14.178;2023-03-03T01:02:05;21.80;;;12.20;;
7645;SDS011;3864;48.180;14.178;2023-03-03T01:04:32;25.63;;;13.60;;
7645;SDS011;3864;48.180;14.178;2023-03-03T01:06:59;27.55;;;13.77;;
7645;SDS011;3864;48.180;14.178;2023-03-03T01:09:27;25.33;;;13.73;;
7645;SDS011;3864;48.180;14.178;2023-03-03T01:11:54;28.02;;;13.50;;
7645;SDS011;3864;48.180;14.178;2023-03-03T01:14:21;25.05;;;12.60;;
7645;SDS011;3864;48.180;14.178;2023-03-03T01:16:47;31.42;;;13.60;;
7645;SDS011;3864;48.180;14.178;2023-03-03T01:19:15;25.45;;;13.30;;
7645;SDS011;3864;48.180;14.178;2023-03-03T01:21:41;27.17;;;13.48;;
7645;SDS011;3864;48.180;14.178;2023-03-03T01:24:08;25.08;;;12.82;;
7645;SDS011;3864;48.180;14.178;2023-03-03T01:26:37;22.65;;;12.55;;
7645;SDS011;3864;48.180;14.178;2023-03-03T01:29:04;24.15;;;12.70;;
7645;SDS011;3864;48.180;14.178;2023-03-03T01:31:30;22.23;;;12.32;;
7645;SDS011;3864;48.180;14.178;2023-03-03T01:33:57;23.10;;;13.23;;
7645;SDS011;3864;48.180;14.178;2023-03-03T01:36:24;25.85;;;12.20;;
7645;SDS011;3864;48.180;14.178;2023-03-03T01:38:51;23.58;;;12.13;;
7645;SDS011;3864;48.180;14.178;2023-03-03T01:41:18;27.92;;;13.18;;
7645;SDS011;3864;48.180;14.178;2023-03-03T01:43:48;26.10;;;12.90;;
7645;SDS011;3864;48.180;14.178;2023-03-03T01:46:29;27.23;;;13.43;;
7645;SDS011;3864;48.180;14.178;2023-03-03T01:48:58;25.05;;;13.65;;
7645;SDS011;3864;48.180;14.178;2023-03-03T01:51:27;26.48;;;13.77;;
7645;SDS011;3864;48.180;14.178;2023-03-03T01:53:55;22.17;;;12.43;;
7645;SDS011;3864;48.180;14.178;2023-03-03T01:56:23;24.65;;;12.88;;
7645;SDS011;3864;48.180;14.178;2023-03-03T01:58:52;22.48;;;12.10;;
7645;SDS011;3864;48.180;14.178;2023-03-03T02:01:23;25.45;;;13.80;;
7645;SDS011;3864;48.180;14.178;2023-03-03T02:03:51;26.30;;;13.13;;
7645;SDS011;3864;48.180;14.178;2023-03-03T02:06:18;22.63;;;12.43;;
7645;SDS011;3864;48.180;14.178;2023-03-03T02:08:47;23.15;;;12.90;;
7645;SDS011;3864;48.180;14.178;2023-03-03T02:11:16;28.90;;;13.88;;
7645;SDS011;3864;48.180;14.178;2023-03-03T02:13:44;24.65;;;13.25;;
7645;SDS011;3864;48.180;14.178;2023-03-03T02:16:13;24.20;;;12.25;;
7645;SDS011;3864;48.180;14.178;2023-03-03T02:18:40;27.60;;;15.60;;
7645;SDS011;3864;48.180;14.178;2023-03-03T02:21:08;28.35;;;14.70;;
7645;SDS011;3864;48.180;14.178;2023-03-03T02:23:37;29.67;;;14.52;;
7645;SDS011;3864;48.180;14.178;2023-03-03T02:26:08;28.02;;;14.82;;
7645;SDS011;3864;48.180;14.178;2023-03-03T02:28:35;30.08;;;14.50;;
7645;SDS011;3864;48.180;14.178;2023-03-03T02:31:04;26.60;;;12.85;;
7645;SDS011;3864;48.180;14.178;2023-03-03T02:33:31;25.73;;;14.18;;
7645;SDS011;3864;48.180;14.178;2023-03-03T02:35:58;30.08;;;13.70;;
7645;SDS011;3864;48.180;14.178;2023-03-03T02:38:26;29.67;;;14.43;;
7645;SDS011;3864;48.180;14.178;2023-03-03T02:40:58;29.77;;;15.35;;
7645;SDS011;3864;48.180;14.178;2023-03-03T02:43:27;27.42;;;14.05;;
7645;SDS011;3864;48.180;14.178;2023-03-03T02:45:56;30.10;;;13.55;;
7645;SDS011;3864;48.180;14.178;2023-03-03T02:48:22;24.52;;;12.73;;
7645;SDS011;3864;48.180;14.178;2023-03-03T02:50:49;26.05;;;13.23;;
7645;SDS011;3864;48.180;14.178;2023-03-03T02:53:16;24.80;;;12.90;;
7645;SDS011;3864;48.180;14.178;2023-03-03T02:55:43;23.27;;;13.68;;
7645;SDS011;3864;48.180;14.178;2023-03-03T02:58:10;24.70;;;12.60;;
7645;SDS011;3864;48.180;14.178;2023-03-03T03:00:38;24.75;;;12.90;;
7645;SDS011;3864;48.180;14.178;2023-03-03T03:03:05;26.05;;;12.40;;
7645;SDS011;3864;48.180;14.178;2023-03-03T03:05:32;23.42;;;12.20;;
7645;SDS011;3864;48.180;14.178;2023-03-03T03:07:58;23.45;;;12.55;;
7645;SDS011;3864;48.180;14.178;2023-03-03T03:10:25;22.38;;;11.68;;
7645;SDS011;3864;48.180;14.178;2023-03-03T03:12:52;27.38;;;13.23;;
7645;SDS011;3864;48.180;14.178;2023-03-03T03:15:19;23.23;;;12.80;;
7645;SDS011;3864;48.180;14.178;2023-03-03T03:17:47;27.08;;;13.90;;
7645;SDS011;3864;48.180;14.178;2023-03-03T03:20:15;27.48;;;13.50;;
7645;SDS011;3864;48.180;14.178;2023-03-03T03:22:42;26.38;;;12.82;;
7645;SDS011;3864;48.180;14.178;2023-03-03T03:25:09;28.80;;;13.18;;
7645;SDS011;3864;48.180;14.178;2023-03-03T03:27:36;24.83;;;13.07;;
7645;SDS011;3864;48.180;14.178;2023-03-03T03:30:03;26.42;;;13.95;;
7645;SDS011;3864;48.180;14.178;2023-03-03T03:32:30;29.38;;;13.70;;
7645;SDS011;3864;48.180;14.178;2023-03-03T03:34:58;33.22;;;15.73;;
7645;SDS011;3864;48.180;14.178;2023-03-03T03:37:25;28.30;;;13.98;;
7645;SDS011;3864;48.180;14.178;2023-03-03T03:39:52;29.45;;;13.65;;
7645;SDS011;3864;48.180;14.178;2023-03-03T03:42:19;27.55;;;13.88;;
7645;SDS011;3864;48.180;14.178;2023-03-03T03:44:46;22.25;;;12.93;;
7645;SDS011;3864;48.180;14.178;2023-03-03T03:47:13;27.13;;;13.40;;
7645;SDS011;3864;48.180;14.178;2023-03-03T03:49:39;30.13;;;13.73;;
7645;SDS011;3864;48.180;14.178;2023-03-03T03:52:07;28.45;;;13.95;;
7645;SDS011;3864;48.180;14.178;2023-03-03T03:54:34;26.42;;;12.98;;
7645;SDS011;3864;48.180;14.178;2023-03-03T03:57:01;29.95;;;14.32;;
7645;SDS011;3864;48.180;14.178;2023-03-03T03:59:28;31.05;;;15.70;;
7645;SDS011;3864;48.180;14.178;2023-03-03T04:01:55;30.55;;;14.70;;
7645;SDS011;3864;48.180;14.178;2023-03-03T04:04:22;29.52;;;14.65;;
7645;SDS011;3864;48.180;14.178;2023-03-03T04:06:49;29.73;;;14.60;;
7645;SDS011;3864;48.180;14.178;2023-03-03T04:09:18;28.90;;;14.80;;
7645;SDS011;3864;48.180;14.178;2023-03-03T04:11:45;29.58;;;14.77;;
7645;SDS011;3864;48.180;14.178;2023-03-03T04:14:11;32.38;;;15.10;;
7645;SDS011;3864;48.180;14.178;2023-03-03T04:16:38;28.42;;;15.30;;
7645;SDS011;3864;48.180;14.178;2023-03-03T04:19:05;32.85;;;15.10;;
7645;SDS011;3864;48.180;14.178;2023-03-03T04:21:32;29.42;;;14.65;;
7645;SDS011;3864;48.180;14.178;2023-03-03T04:23:59;34.65;;;16.30;;
7645;SDS011;3864;48.180;14.178;2023-03-03T04:26:27;29.20;;;15.30;;
7645;SDS011;3864;48.180;14.178;2023-03-03T04:28:55;31.40;;;16.33;;
7645;SDS011;3864;48.180;14.178;2023-03-03T04:31:22;28.50;;;15.75;;
7645;SDS011;3864;48.180;14.178;2023-03-03T04:33:49;33.55;;;16.08;;
7645;SDS011;3864;48.180;14.178;2023-03-03T04:36:17;35.38;;;16.48;;
7645;SDS011;3864;48.180;14.178;2023-03-03T04:38:44;32.38;;;15.85;;
7645;SDS011;3864;48.180;14.178;2023-03-03T04:41:11;38.78;;;18.10;;
7645;SDS011;3864;48.180;14.178;2023-03-03T04:43:39;35.88;;;17.23;;
7645;SDS011;3864;48.180;14.178;2023-03-03T04:46:06;33.33;;;17.00;;
7645;SDS011;3864;48.180;14.178;2023-03-03T04:48:33;39.15;;;17.20;;
7645;SDS011;3864;48.180;14.178;2023-03-03T04:51:00;35.53;;;17.70;;
7645;SDS011;3864;48.180;14.178;2023-03-03T04:53:27;35.85;;;17.52;;
7645;SDS011;3864;48.180;14.178;2023-03-03T04:55:54;32.38;;;16.70;;
7645;SDS011;3864;48.180;14.178;2023-03-03T04:58:20;37.00;;;17.35;;
7645;SDS011;3864;48.180;14.178;2023-03-03T05:00:53;34.83;;;16.40;;
7645;SDS011;3864;48.180;14.178;2023-03-03T05:03:20;33.58;;;16.67;;
7645;SDS011;3864;48.180;14.178;2023-03-03T05:05:47;38.60;;;17.52;;
7645;SDS011;3864;48.180;14.178;2023-03-03T05:08:14;36.30;;;17.92;;
7645;SDS011;3864;48.180;14.178;2023-03-03T05:10:41;36.15;;;18.38;;
7645;SDS011;3864;48.180;14.178;2023-03-03T05:13:08;38.67;;;19.10;;
7645;SDS011;3864;48.180;14.178;2023-03-03T05:15:35;40.72;;;19.48;;
7645;SDS011;3864;48.180;14.178;2023-03-03T05:18:04;43.90;;;20.73;;
7645;SDS011;3864;48.180;14.178;2023-03-03T05:20:31;42.22;;;20.17;;
7645;SDS011;3864;48.180;14.178;2023-03-03T05:22:58;39.65;;;19.55;;
7645;SDS011;3864;48.180;14.178;2023-03-03T05:25:25;48.38;;;21.42;;
7645;SDS011;3864;48.180;14.178;2023-03-03T05:27:52;45.83;;;21.67;;
7645;SDS011;3864;48.180;14.178;2023-03-03T05:32:46;40.47;;;20.33;;
7645;SDS011;3864;48.180;14.178;2023-03-03T05:35:15;52.20;;;22.20;;
7645;SDS011;3864;48.180;14.178;2023-03-03T05:37:42;41.90;;;20.00;;
7645;SDS011;3864;48.180;14.178;2023-03-03T05:40:12;46.03;;;20.02;;
7645;SDS011;3864;48.180;14.178;2023-03-03T05:42:39;43.67;;;21.67;;
7645;SDS011;3864;48.180;14.178;2023-03-03T05:45:06;46.60;;;20.60;;
7645;SDS011;3864;48.180;14.178;2023-03-03T05:49:59;42.40;;;20.10;;
7645;SDS011;3864;48.180;14.178;2023-03-03T05:52:28;48.10;;;21.13;;
7645;SDS011;3864;48.180;14.178;2023-03-03T05:54:55;49.70;;;21.52;;
7645;SDS011;3864;48.180;14.178;2023-03-03T05:57:22;46.97;;;21.67;;
7645;SDS011;3864;48.180;14.178;2023-03-03T05:59:49;43.67;;;21.40;;
7645;SDS011;3864;48.180;14.178;2023-03-03T06:04:00;44.60;;;19.92;;
7645;SDS011;3864;48.180;14.178;2023-03-03T06:06:27;45.28;;;20.92;;
7645;SDS011;3864;48.180;14.178;2023-03-03T06:11:20;40.75;;;18.67;;
7645;SDS011;3864;48.180;14.178;2023-03-03T06:13:47;46.67;;;19.98;;
7645;SDS011;3864;48.180;14.178;2023-03-03T06:16:14;43.58;;;19.92;;
7645;SDS011;3864;48.180;14.178;2023-03-03T06:21:10;50.67;;;20.65;;
7645;SDS011;3864;48.180;14.178;2023-03-03T06:23:38;42.90;;;19.98;;
7645;SDS011;3864;48.180;14.178;2023-03-03T06:26:04;52.67;;;21.63;;
7645;SDS011;3864;48.180;14.178;2023-03-03T06:28:32;46.55;;;21.67;;
7645;SDS011;3864;48.180;14.178;2023-03-03T06:30:58;49.70;;;21.50;;
7645;SDS011;3864;48.180;14.178;2023-03-03T06:33:25;48.08;;;20.20;;
7645;SDS011;3864;48.180;14.178;2023-03-03T06:35:53;44.20;;;19.58;;
7645;SDS011;3864;48.180;14.178;2023-03-03T06:38:21;47.92;;;22.38;;
7645;SDS011;3864;48.180;14.178;2023-03-03T06:40:48;47.33;;;19.75;;
7645;SDS011;3864;48.180;14.178;2023-03-03T06:43:15;48.60;;;21.48;;
7645;SDS011;3864;48.180;14.178;2023-03-03T06:45:43;46.78;;;22.02;;
7645;SDS011;3864;48.180;14.178;2023-03-03T06:48:10;47.30;;;20.98;;
7645;SDS011;3864;48.180;14.178;2023-03-03T06:50:37;46.63;;;21.20;;
7645;SDS011;3864;48.180;14.178;2023-03-03T06:55:33;46.10;;;19.67;;
7645;SDS011;3864;48.180;14.178;2023-03-03T06:57:59;46.08;;;20.90;;
7645;SDS011;3864;48.180;14.178;2023-03-03T07:00:27;49.28;;;21.98;;
7645;SDS011;3864;48.180;14.178;2023-03-03T07:02:56;48.85;;;20.92;;
7645;SDS011;3864;48.180;14.178;2023-03-03T07:05:23;49.15;;;21.08;;
7645;SDS011;3864;48.180;14.178;2023-03-03T07:07:52;55.30;;;23.35;;
7645;SDS011;3864;48.180;14.178;2023-03-03T07:10:21;51.22;;;21.52;;
7645;SDS011;3864;48.180;14.178;2023-03-03T07:12:50;47.50;;;21.52;;
7645;SDS011;3864;48.180;14.178;2023-03-03T07:15:19;45.92;;;21.27;;
7645;SDS011;3864;48.180;14.178;2023-03-03T07:17:47;43.00;;;20.33;;
7645;SDS011;3864;48.180;14.178;2023-03-03T07:20:16;48.25;;;21.48;;
